createdAt,value
2022-11-05T00:02:37.713Z,4.00
2022-11-05T00:05:23.965Z,2.67
2022-11-05T00:08:09.937Z,3.13
2022-11-05T00:10:38.645Z,2.60
2022-11-05T00:13:26.807Z,1.63
2022-11-05T00:16:27.342Z,4.33
2022-11-05T00:19:07.389Z,3.10
2022-11-05T00:21:53.455Z,2.20
2022-11-05T00:24:39.573Z,4.27
2022-11-05T00:27:07.875Z,2.60
2022-11-05T00:29:37.472Z,2.87
2022-11-05T00:32:05.908Z,2.60
2022-11-05T00:34:34.162Z,3.40
2022-11-05T00:37:02.437Z,2.50
2022-11-05T00:39:30.730Z,3.10
2022-11-05T00:42:12.868Z,1.90
2022-11-05T00:45:01.962Z,3.20
2022-11-05T00:47:48.044Z,2.70
2022-11-05T00:50:16.383Z,3.03
2022-11-05T00:52:57.179Z,1.20
2022-11-05T00:55:25.752Z,1.43
2022-11-05T00:57:54.086Z,2.13
2022-11-05T01:00:24.337Z,3.90
2022-11-05T01:02:52.760Z,2.67
2022-11-05T01:05:21.214Z,1.33
2022-11-05T01:07:49.484Z,1.73
2022-11-05T01:10:17.805Z,1.23
2022-11-05T01:12:46.059Z,2.33
2022-11-05T01:15:14.408Z,3.07
2022-11-05T01:17:44.021Z,2.60
2022-11-05T01:20:12.724Z,3.00
2022-11-05T01:22:40.941Z,1.47
2022-11-05T01:25:10.034Z,2.47
2022-11-05T01:27:38.406Z,3.40
2022-11-05T01:30:07.276Z,1.93
2022-11-05T01:32:35.984Z,1.77
2022-11-05T01:35:05.679Z,3.30
2022-11-05T01:37:33.933Z,4.27
2022-11-05T01:40:02.235Z,2.17
2022-11-05T01:42:32.960Z,2.33
2022-11-05T01:45:02.144Z,1.90
2022-11-05T01:47:32.782Z,2.37
2022-11-05T01:50:01.444Z,1.27
2022-11-05T01:52:31.536Z,1.50
2022-11-05T01:54:59.806Z,2.53
2022-11-05T01:57:28.083Z,0.87
2022-11-05T01:59:56.979Z,2.07
2022-11-05T02:02:25.510Z,1.10
2022-11-05T02:04:54.933Z,1.63
2022-11-05T02:07:23.198Z,5.97
2022-11-05T02:09:53.189Z,1.23
2022-11-05T02:12:21.452Z,2.13
2022-11-05T02:14:49.739Z,1.63
2022-11-05T02:17:19.248Z,0.90
2022-11-05T02:19:59.361Z,1.70
2022-11-05T02:22:38.991Z,3.47
2022-11-05T02:25:13.027Z,1.13
2022-11-05T02:27:49.268Z,1.27
2022-11-05T02:30:35.631Z,0.90
2022-11-05T02:33:08.283Z,2.00
2022-11-05T02:35:41.258Z,1.17
2022-11-05T02:38:10.127Z,1.77
2022-11-05T02:40:40.358Z,0.80
2022-11-05T02:43:15.195Z,1.63
2022-11-05T02:45:44.620Z,1.03
2022-11-05T02:48:15.328Z,1.93
2022-11-05T02:50:46.896Z,0.83
2022-11-05T02:53:16.588Z,0.40
2022-11-05T02:55:46.820Z,0.83
2022-11-05T02:58:15.057Z,1.77
2022-11-05T03:00:47.214Z,0.90
2022-11-05T03:03:26.282Z,1.90
2022-11-05T03:06:01.513Z,0.80
2022-11-05T03:08:34.148Z,0.63
2022-11-05T03:11:03.288Z,0.60
2022-11-05T03:13:32.716Z,1.27
2022-11-05T03:16:02.033Z,0.93
2022-11-05T03:18:32.560Z,3.20
2022-11-05T03:21:01.812Z,0.87
2022-11-05T03:23:31.126Z,1.83
2022-11-05T03:26:01.148Z,0.97
2022-11-05T03:28:29.503Z,2.30
2022-11-05T03:30:57.813Z,0.63
2022-11-05T03:33:26.859Z,0.53
2022-11-05T03:35:56.759Z,0.50
2022-11-05T03:38:26.189Z,0.60
2022-11-05T03:40:55.270Z,0.60
2022-11-05T03:43:24.041Z,0.73
2022-11-05T03:45:53.234Z,0.70
2022-11-05T03:48:21.544Z,1.27
2022-11-05T03:50:51.184Z,0.57
2022-11-05T03:53:22.944Z,1.80
2022-11-05T03:55:53.165Z,0.67
2022-11-05T03:58:21.510Z,1.80
2022-11-05T04:00:49.824Z,2.53
2022-11-05T04:03:18.063Z,0.63
2022-11-05T04:06:06.369Z,0.40
2022-11-05T04:09:07.874Z,0.60
2022-11-05T04:11:53.467Z,0.40
2022-11-05T04:14:21.709Z,0.80
2022-11-05T04:17:09.523Z,0.50
2022-11-05T04:19:55.308Z,0.60
2022-11-05T04:22:41.420Z,0.50
2022-11-05T04:25:11.133Z,0.97
2022-11-05T04:27:39.457Z,0.83
2022-11-05T04:30:19.963Z,0.50
2022-11-05T04:33:04.543Z,0.70
2022-11-05T04:35:33.182Z,0.80
2022-11-05T04:38:01.419Z,0.80
2022-11-05T04:40:31.024Z,0.70
2022-11-05T04:42:59.279Z,0.60
2022-11-05T04:45:28.012Z,0.70
2022-11-05T04:47:56.282Z,0.40
2022-11-05T04:50:24.582Z,0.97
2022-11-05T04:52:52.923Z,0.50
2022-11-05T04:55:21.170Z,0.30
2022-11-05T04:57:50.955Z,0.40
2022-11-05T05:00:19.391Z,1.13
2022-11-05T05:02:47.644Z,0.67
2022-11-05T05:05:15.933Z,0.20
2022-11-05T05:07:44.185Z,0.93
2022-11-05T05:10:12.473Z,0.50
2022-11-05T05:12:40.733Z,0.40
2022-11-05T05:15:10.536Z,0.43
2022-11-05T05:17:38.815Z,0.73
2022-11-05T05:20:24.836Z,0.40
2022-11-05T05:22:54.003Z,0.70
2022-11-05T05:25:22.374Z,0.87
2022-11-05T05:27:50.630Z,0.67
2022-11-05T05:30:20.272Z,0.60
2022-11-05T05:32:48.600Z,1.90
2022-11-05T05:35:16.880Z,0.93
2022-11-05T05:37:45.541Z,1.27
2022-11-05T05:40:13.784Z,0.57
2022-11-05T05:42:43.515Z,0.77
2022-11-05T05:45:12.685Z,0.63
2022-11-05T05:47:42.319Z,0.40
2022-11-05T05:50:10.548Z,1.07
2022-11-05T05:52:38.821Z,0.67
2022-11-05T05:55:07.470Z,0.70
2022-11-05T05:57:36.066Z,0.77
2022-11-05T06:00:04.925Z,0.40
2022-11-05T06:02:33.331Z,0.60
2022-11-05T06:05:03.085Z,0.50
2022-11-05T06:07:36.053Z,0.63
2022-11-05T06:10:05.859Z,2.93
2022-11-05T06:12:34.121Z,0.50
2022-11-05T06:15:02.387Z,1.90
2022-11-05T06:17:30.608Z,1.50
2022-11-05T06:19:58.914Z,0.43
2022-11-05T06:22:28.500Z,0.50
2022-11-05T06:24:56.710Z,0.33
2022-11-05T06:27:25.006Z,0.50
2022-11-05T06:29:53.225Z,0.50
2022-11-05T06:32:21.480Z,0.47
2022-11-05T06:34:49.913Z,0.40
2022-11-05T06:37:18.304Z,0.73
2022-11-05T06:39:47.897Z,0.43
2022-11-05T06:42:18.971Z,0.40
2022-11-05T06:44:48.029Z,0.50
2022-11-05T06:47:16.340Z,0.50
2022-11-05T06:49:44.566Z,1.23
2022-11-05T06:52:12.920Z,0.60
2022-11-05T06:54:42.453Z,0.80
2022-11-05T06:57:12.418Z,1.10
2022-11-05T06:59:40.686Z,0.47
2022-11-05T07:02:09.150Z,0.97
2022-11-05T07:04:37.420Z,0.30
2022-11-05T07:07:05.678Z,1.80
2022-11-05T07:09:34.076Z,0.40
2022-11-05T07:12:02.343Z,0.93
2022-11-05T07:14:31.942Z,1.10
2022-11-05T07:17:00.228Z,0.73
2022-11-05T07:19:28.477Z,0.93
2022-11-05T07:21:56.810Z,0.60
2022-11-05T07:24:25.102Z,0.67
2022-11-05T07:26:53.395Z,0.90
2022-11-05T07:29:21.618Z,0.70
2022-11-05T07:31:51.192Z,0.97
2022-11-05T07:34:19.496Z,0.47
2022-11-05T07:36:47.723Z,0.70
2022-11-05T07:39:16.141Z,0.50
2022-11-05T07:41:44.494Z,0.43
2022-11-05T07:44:14.347Z,0.40
2022-11-05T07:46:42.742Z,0.47
2022-11-05T07:49:12.455Z,0.90
2022-11-05T07:51:40.691Z,3.60
2022-11-05T07:54:08.971Z,0.60
2022-11-05T07:56:37.338Z,0.37
2022-11-05T07:59:05.558Z,0.60
2022-11-05T08:01:33.934Z,1.60
2022-11-05T08:04:02.458Z,1.07
2022-11-05T08:06:32.160Z,0.70
2022-11-05T08:09:00.403Z,0.83
2022-11-05T08:11:28.811Z,0.90
2022-11-05T08:13:57.104Z,1.43
2022-11-05T08:16:25.374Z,0.90
2022-11-05T08:18:53.818Z,0.60
2022-11-05T08:21:22.084Z,0.50
2022-11-05T08:23:51.671Z,0.40
2022-11-05T08:26:20.725Z,0.60
2022-11-05T08:28:48.965Z,0.87
2022-11-05T08:31:18.166Z,0.80
2022-11-05T08:33:46.454Z,0.90
2022-11-05T08:36:14.876Z,0.90
2022-11-05T08:38:43.185Z,0.93
2022-11-05T08:41:12.917Z,0.50
2022-11-05T08:43:41.205Z,0.93
2022-11-05T08:46:09.491Z,2.17
2022-11-05T08:48:37.774Z,0.73
2022-11-05T08:51:07.485Z,0.80
2022-11-05T08:53:35.752Z,0.97
2022-11-05T08:56:04.100Z,0.53
2022-11-05T08:58:33.730Z,0.87
2022-11-05T09:01:05.175Z,0.77
2022-11-05T09:03:33.922Z,0.83
2022-11-05T09:06:02.157Z,0.53
2022-11-05T09:08:30.408Z,0.73
2022-11-05T09:10:58.862Z,0.70
2022-11-05T09:13:27.387Z,0.53
2022-11-05T09:15:57.205Z,0.77
2022-11-05T09:18:25.598Z,1.13
2022-11-05T09:20:53.832Z,0.70
2022-11-05T09:23:22.105Z,0.70
2022-11-05T09:25:50.507Z,0.50
2022-11-05T09:28:20.255Z,1.73
2022-11-05T09:30:48.955Z,0.60
2022-11-05T09:33:18.620Z,0.40
2022-11-05T09:35:46.866Z,0.53
2022-11-05T09:38:15.233Z,0.60
2022-11-05T09:40:43.688Z,2.43
2022-11-05T09:43:12.522Z,0.47
2022-11-05T09:45:41.175Z,1.07
2022-11-05T09:48:12.218Z,1.50
2022-11-05T09:50:42.248Z,0.63
2022-11-05T09:53:11.882Z,0.67
2022-11-05T09:55:40.720Z,0.50
2022-11-05T09:58:18.423Z,1.60
2022-11-05T10:00:48.659Z,0.50
2022-11-05T10:03:17.515Z,1.60
2022-11-05T10:05:47.291Z,0.50
2022-11-05T10:08:17.295Z,0.40
2022-11-05T10:10:46.651Z,2.97
2022-11-05T10:13:17.663Z,0.80
2022-11-05T10:15:48.292Z,0.50
2022-11-05T10:18:16.943Z,0.60
2022-11-05T10:20:46.646Z,2.70
2022-11-05T10:23:15.562Z,0.50
2022-11-05T10:25:45.872Z,1.23
2022-11-05T10:28:16.672Z,0.40
2022-11-05T10:30:45.030Z,0.87
2022-11-05T10:33:13.694Z,2.57
2022-11-05T10:35:43.836Z,0.77
2022-11-05T10:38:14.515Z,0.60
2022-11-05T10:40:44.869Z,1.10
2022-11-05T10:43:14.840Z,1.27
2022-11-05T10:45:47.603Z,0.97
2022-11-05T10:48:32.317Z,5.00
2022-11-05T10:51:00.698Z,1.17
2022-11-05T10:53:31.208Z,0.90
2022-11-05T10:55:59.597Z,0.53
2022-11-05T10:58:29.132Z,3.10
2022-11-05T11:01:04.479Z,0.97
2022-11-05T11:03:35.224Z,0.77
2022-11-05T11:06:03.900Z,0.40
2022-11-05T11:08:34.590Z,0.60
2022-11-05T11:11:04.535Z,0.60
2022-11-05T11:13:51.370Z,0.87
2022-11-05T11:16:21.697Z,3.83
2022-11-05T11:18:49.951Z,1.00
2022-11-05T11:21:19.634Z,0.57
2022-11-05T11:23:55.548Z,0.40
2022-11-05T11:26:23.827Z,0.50
2022-11-05T11:28:53.379Z,1.30
2022-11-05T11:31:23.200Z,0.50
2022-11-05T11:33:52.430Z,0.37
2022-11-05T11:36:21.430Z,0.70
2022-11-05T11:38:51.202Z,2.03
2022-11-05T11:41:24.338Z,1.00
2022-11-05T11:43:54.747Z,0.87
2022-11-05T11:46:22.986Z,1.93
2022-11-05T11:48:51.366Z,0.93
2022-11-05T11:51:20.798Z,0.50
2022-11-05T11:53:50.942Z,0.50
2022-11-05T11:56:20.692Z,0.63
2022-11-05T11:58:49.576Z,1.40
2022-11-05T12:01:33.231Z,0.70
2022-11-05T12:04:01.941Z,3.40
2022-11-05T12:06:31.682Z,4.63
2022-11-05T12:09:07.030Z,1.17
2022-11-05T12:11:37.050Z,3.10
2022-11-05T12:14:06.225Z,5.70
2022-11-05T12:16:41.774Z,0.93
2022-11-05T12:19:13.466Z,1.00
2022-11-05T12:21:55.339Z,4.00
2022-11-05T12:24:44.567Z,0.57
2022-11-05T12:27:17.449Z,0.53
2022-11-05T12:29:49.816Z,0.47
2022-11-05T12:32:41.103Z,1.13
2022-11-05T12:35:13.025Z,3.20
2022-11-05T12:37:43.514Z,1.53
2022-11-05T12:40:19.050Z,0.60
2022-11-05T12:42:52.912Z,0.83
2022-11-05T12:45:24.553Z,0.83
2022-11-05T12:47:57.084Z,0.50
2022-11-05T12:50:26.778Z,0.50
2022-11-05T12:52:59.272Z,0.67
2022-11-05T12:55:27.977Z,1.00
2022-11-05T12:57:59.351Z,1.13
2022-11-05T13:00:27.917Z,0.97
2022-11-05T13:02:56.567Z,0.33
2022-11-05T13:05:27.815Z,0.83
2022-11-05T13:07:58.302Z,1.13
2022-11-05T13:10:27.854Z,0.60
2022-11-05T13:13:00.145Z,0.80
2022-11-05T13:15:29.082Z,2.63
2022-11-05T13:17:58.491Z,0.97
2022-11-05T13:20:27.278Z,0.47
2022-11-05T13:22:57.482Z,0.60
2022-11-05T13:25:26.330Z,0.47
2022-11-05T13:27:56.679Z,1.13
2022-11-05T13:30:26.736Z,0.30
2022-11-05T13:32:57.006Z,0.53
2022-11-05T13:35:26.424Z,1.43
2022-11-05T13:38:13.378Z,0.70
2022-11-05T13:40:44.114Z,0.40
2022-11-05T13:43:16.674Z,2.20
2022-11-05T13:46:06.387Z,0.40
2022-11-05T13:48:42.205Z,0.77
2022-11-05T13:51:25.058Z,3.30
2022-11-05T13:54:26.264Z,1.90
2022-11-05T13:57:06.291Z,0.60
2022-11-05T13:59:41.393Z,0.77
2022-11-05T14:02:13.813Z,0.37
2022-11-05T14:04:44.168Z,0.40
2022-11-05T14:07:12.981Z,0.63
2022-11-05T14:09:41.380Z,0.63
2022-11-05T14:12:16.282Z,1.33
2022-11-05T14:14:45.617Z,2.20
2022-11-05T14:17:17.956Z,0.43
2022-11-05T14:20:07.797Z,1.50
2022-11-05T14:22:40.167Z,1.03
2022-11-05T14:25:26.538Z,1.27
2022-11-05T14:27:54.934Z,0.83
2022-11-05T14:30:42.367Z,0.73
2022-11-05T14:33:17.913Z,1.37
2022-11-05T14:35:47.595Z,0.50
2022-11-05T14:38:20.373Z,0.53
2022-11-05T14:40:48.668Z,0.97
2022-11-05T14:43:19.719Z,0.93
2022-11-05T14:45:54.578Z,17.97
2022-11-05T14:48:37.533Z,11.20
2022-11-05T14:51:19.507Z,14.70
2022-11-05T14:53:47.803Z,14.77
2022-11-05T14:56:16.598Z,15.40
2022-11-05T14:58:45.048Z,18.47
2022-11-05T15:01:45.162Z,12.87
2022-11-05T15:04:19.978Z,12.00
2022-11-05T15:07:03.221Z,14.60
2022-11-05T15:09:34.144Z,16.33
2022-11-05T15:12:14.809Z,13.47
2022-11-05T15:14:48.309Z,12.67
2022-11-05T15:17:18.291Z,13.90
2022-11-05T15:19:46.621Z,16.37
2022-11-05T15:22:23.950Z,9.77
2022-11-05T15:24:53.704Z,11.93
2022-11-05T15:27:23.913Z,12.23
2022-11-05T15:29:52.176Z,14.93
2022-11-05T15:32:20.732Z,12.17
2022-11-05T15:34:52.549Z,12.87
2022-11-05T15:37:24.017Z,10.37
2022-11-05T15:39:54.182Z,13.03
2022-11-05T15:42:23.277Z,14.03
2022-11-05T15:44:51.850Z,20.33
2022-11-05T15:47:21.514Z,13.03
2022-11-05T15:49:50.720Z,9.43
2022-11-05T15:52:19.593Z,19.40
2022-11-05T15:54:47.921Z,23.97
2022-11-05T15:57:22.722Z,28.97
2022-11-05T15:59:51.089Z,25.03
2022-11-05T16:02:32.560Z,22.87
2022-11-05T16:05:01.147Z,16.80
2022-11-05T16:07:29.458Z,18.70
2022-11-05T16:09:58.207Z,18.47
2022-11-05T16:12:33.549Z,18.80
2022-11-05T16:15:03.872Z,14.30
2022-11-05T16:17:32.956Z,16.07
2022-11-05T16:20:01.304Z,14.40
2022-11-05T16:22:44.412Z,16.27
2022-11-05T16:25:25.831Z,10.40
2022-11-05T16:27:55.466Z,14.10
2022-11-05T16:30:23.804Z,13.60
2022-11-05T16:32:52.216Z,12.67
2022-11-05T16:35:21.156Z,17.33
2022-11-05T16:37:52.238Z,17.90
2022-11-05T16:40:21.302Z,20.60
2022-11-05T16:42:51.336Z,21.73
2022-11-05T16:45:22.799Z,23.63
2022-11-05T16:47:51.034Z,19.20
2022-11-05T16:50:20.862Z,20.70
2022-11-05T16:52:49.265Z,17.77
2022-11-05T16:55:17.690Z,20.27
2022-11-05T16:57:46.239Z,17.23
2022-11-05T17:00:15.760Z,16.07
2022-11-05T17:02:45.578Z,17.70
2022-11-05T17:05:17.951Z,16.57
2022-11-05T17:07:46.286Z,18.50
2022-11-05T17:10:14.561Z,13.97
2022-11-05T17:12:43.103Z,13.60
2022-11-05T17:15:16.953Z,13.33
2022-11-05T17:17:46.737Z,12.43
2022-11-05T17:20:16.054Z,15.03
2022-11-05T17:22:44.312Z,8.03
2022-11-05T17:25:12.676Z,12.33
2022-11-05T17:27:40.892Z,11.03
2022-11-05T17:30:09.724Z,7.50
2022-11-05T17:32:38.235Z,9.80
2022-11-05T17:35:08.319Z,9.33
2022-11-05T17:37:36.614Z,8.43
2022-11-05T17:40:04.963Z,11.13
2022-11-05T17:42:33.210Z,10.53
2022-11-05T17:45:01.440Z,9.37
2022-11-05T17:47:29.844Z,14.27
2022-11-05T17:49:58.105Z,10.97
2022-11-05T17:52:28.810Z,8.03
2022-11-05T17:54:57.117Z,11.13
2022-11-05T17:57:25.364Z,10.30
2022-11-05T17:59:53.761Z,28.50
2022-11-05T18:02:22.137Z,4.60
2022-11-05T18:04:50.656Z,5.23
2022-11-05T18:07:19.036Z,9.23
2022-11-05T18:09:48.720Z,4.23
2022-11-05T18:12:17.041Z,4.07
2022-11-05T18:14:45.431Z,13.13
2022-11-05T18:17:13.725Z,6.07
2022-11-05T18:19:42.034Z,4.33
2022-11-05T18:22:10.442Z,3.57
2022-11-05T18:24:38.745Z,5.77
2022-11-05T18:27:08.407Z,10.93
2022-11-05T18:29:36.824Z,20.60
2022-11-05T18:32:05.231Z,16.40
2022-11-05T18:34:33.473Z,18.20
2022-11-05T18:37:01.909Z,17.13
2022-11-05T18:39:30.231Z,17.17
2022-11-05T18:41:58.515Z,19.17
2022-11-05T18:44:28.268Z,26.77
2022-11-05T18:46:58.419Z,12.47
2022-11-05T18:49:27.156Z,18.10
2022-11-05T18:51:55.474Z,14.43
2022-11-05T18:54:23.983Z,12.83
2022-11-05T18:56:52.243Z,9.00
2022-11-05T18:59:38.713Z,7.20
2022-11-05T19:02:09.488Z,6.33
2022-11-05T19:04:37.957Z,20.37
2022-11-05T19:07:06.285Z,28.20
2022-11-05T19:09:34.645Z,26.87
2022-11-05T19:12:03.123Z,27.83
2022-11-05T19:14:31.386Z,23.57
2022-11-05T19:17:00.218Z,20.20
2022-11-05T19:19:29.943Z,25.13
2022-11-05T19:21:58.222Z,19.47
2022-11-05T19:24:26.482Z,20.63
2022-11-05T19:26:54.888Z,21.87
2022-11-05T19:29:23.125Z,14.27
2022-11-05T19:31:51.381Z,13.20
2022-11-05T19:34:20.683Z,11.17
2022-11-05T19:36:50.312Z,12.13
2022-11-05T19:39:18.608Z,10.20
2022-11-05T19:41:47.940Z,13.00
2022-11-05T19:44:16.257Z,7.53
2022-11-05T19:46:44.945Z,9.43
2022-11-05T19:49:13.343Z,9.67
2022-11-05T19:51:41.627Z,8.37
2022-11-05T19:54:11.388Z,8.10
2022-11-05T19:56:39.809Z,5.47
2022-11-05T19:59:08.088Z,5.20
2022-11-05T20:01:36.536Z,7.23
2022-11-05T20:04:05.859Z,4.13
2022-11-05T20:06:35.187Z,4.47
2022-11-05T20:09:21.102Z,5.10
2022-11-05T20:11:53.889Z,2.97
2022-11-05T20:14:22.149Z,2.87
2022-11-05T20:16:50.473Z,2.80
2022-11-05T20:19:19.373Z,2.87
2022-11-05T20:21:47.651Z,3.40
2022-11-05T20:24:22.321Z,6.30
2022-11-05T20:26:53.704Z,18.10
2022-11-05T20:29:22.024Z,18.40
2022-11-05T20:31:50.334Z,17.23
2022-11-05T20:34:18.629Z,14.83
2022-11-05T20:36:46.924Z,17.97
2022-11-05T20:39:15.175Z,15.63
2022-11-05T20:41:43.482Z,19.67
2022-11-05T20:44:13.140Z,13.07
2022-11-05T20:46:41.407Z,14.57
2022-11-05T20:49:09.712Z,8.97
2022-11-05T20:51:38.099Z,9.60
2022-11-05T20:54:06.673Z,5.90
2022-11-05T20:56:35.872Z,8.67
2022-11-05T20:59:04.551Z,12.10
2022-11-05T21:01:34.821Z,17.83
2022-11-05T21:04:03.558Z,23.17
2022-11-05T21:06:31.845Z,24.00
2022-11-05T21:09:00.157Z,21.83
2022-11-05T21:11:28.648Z,20.60
2022-11-05T21:13:56.892Z,22.37
2022-11-05T21:16:25.125Z,26.07
2022-11-05T21:18:54.773Z,13.90
2022-11-05T21:21:23.059Z,13.97
2022-11-05T21:23:51.474Z,13.83
2022-11-05T21:26:19.741Z,14.73
2022-11-05T21:28:48.106Z,11.43
2022-11-05T21:31:16.382Z,7.17
2022-11-05T21:33:44.660Z,12.30
2022-11-05T21:36:14.662Z,9.90
2022-11-05T21:38:43.009Z,10.07
2022-11-05T21:41:11.759Z,10.33
2022-11-05T21:43:41.151Z,7.20
2022-11-05T21:46:09.385Z,5.87
2022-11-05T21:48:37.956Z,3.60
2022-11-05T21:51:24.125Z,5.30
2022-11-05T21:54:11.575Z,6.80
2022-11-05T21:56:57.371Z,3.47
2022-11-05T21:59:43.803Z,4.43
2022-11-05T22:02:12.740Z,4.63
2022-11-05T22:04:41.583Z,6.80
2022-11-05T22:07:10.171Z,7.73
2022-11-05T22:09:39.954Z,10.53
2022-11-05T22:12:08.398Z,18.07
2022-11-05T22:14:36.774Z,16.97
2022-11-05T22:17:05.072Z,14.00
2022-11-05T22:19:33.444Z,17.83
2022-11-05T22:22:01.710Z,13.90
2022-11-05T22:24:31.747Z,15.37
2022-11-05T22:27:01.553Z,19.00
2022-11-05T22:29:30.000Z,15.40
2022-11-05T22:31:58.243Z,12.97
2022-11-05T22:34:26.615Z,13.37
2022-11-05T22:36:55.086Z,8.37
2022-11-05T22:39:23.333Z,10.77
2022-11-05T22:41:51.656Z,6.87
2022-11-05T22:44:21.411Z,5.03
2022-11-05T22:46:49.655Z,7.63
2022-11-05T22:49:17.923Z,8.33
2022-11-05T22:51:46.398Z,6.83
2022-11-05T22:54:14.748Z,4.83
2022-11-05T22:56:43.564Z,4.13
2022-11-05T22:59:12.834Z,4.13
2022-11-05T23:01:42.652Z,5.33
2022-11-05T23:04:11.032Z,5.80
2022-11-05T23:06:57.270Z,4.87
2022-11-05T23:09:43.434Z,4.27
2022-11-05T23:12:24.255Z,10.27
2022-11-05T23:14:52.522Z,20.00
2022-11-05T23:17:40.012Z,29.30
2022-11-05T23:20:26.364Z,19.57
2022-11-05T23:23:12.473Z,23.00
2022-11-05T23:25:40.726Z,24.00
2022-11-05T23:28:10.749Z,19.70
2022-11-05T23:31:00.254Z,16.87
2022-11-05T23:33:28.826Z,13.27
2022-11-05T23:36:14.977Z,16.93
2022-11-05T23:38:43.216Z,16.20
2022-11-05T23:41:29.070Z,12.97
2022-11-05T23:44:15.071Z,12.67
2022-11-05T23:47:01.156Z,10.13
2022-11-05T23:49:30.758Z,8.70
2022-11-05T23:51:59.013Z,6.57
2022-11-05T23:54:27.418Z,8.03
2022-11-05T23:56:55.685Z,10.13
2022-11-05T23:59:24.012Z,7.27
